Time;durP1;ratioP1;P1;durP2;ratioP2;P2;SDS_P1;SDS_P2;PMS_P1;PMS_P2;Temp;Humidity;BMP_temperature;BMP_pressure;BME280_temperature;BME280_humidity;BME280_pressure;Samples;Min_cycle;Max_cycle;Signal;HPM_P1;HPM_P2
2022/01/16 00:04:34;;;;;;;70.07;24.47;;;;;;;;;;5092985;28;20200;-80
2022/01/16 00:07:04;;;;;;;111.23;24.03;;;;;;;;;;5101652;28;20255;-79
2022/01/16 00:09:32;;;;;;;85.87;24.93;;;;;;;;;;5094349;28;20248;-80
2022/01/16 00:12:00;;;;;;;94.40;25.20;;;;;;;;;;5092840;28;20581;-79
2022/01/16 00:14:30;;;;;;;87.87;23.90;;;;;;;;;;5093447;28;20207;-79
2022/01/16 00:16:57;;;;;;;61.50;22.87;;;;;;;;;;5097486;28;20213;-80
2022/01/16 00:19:24;;;;;;;62.50;21.27;;;;;;;;;;5094982;28;20237;-79
2022/01/16 00:21:53;;;;;;;60.70;20.03;;;;;;;;;;5093513;28;20220;-79
2022/01/16 00:24:20;;;;;;;49.43;19.90;;;;;;;;;;5093779;28;20248;-80
2022/01/16 00:26:48;;;;;;;55.03;20.00;;;;;;;;;;5097011;28;20229;-79
2022/01/16 00:29:15;;;;;;;58.73;19.00;;;;;;;;;;5093840;28;20234;-79
2022/01/16 00:31:43;;;;;;;63.80;20.47;;;;;;;;;;5093469;28;20197;-80
2022/01/16 00:34:13;;;;;;;67.27;21.20;;;;;;;;;;5094779;28;20234;-79
2022/01/16 00:36:40;;;;;;;74.57;21.17;;;;;;;;;;5092380;28;20277;-80
2022/01/16 00:39:09;;;;;;;52.10;21.10;;;;;;;;;;5100277;28;20296;-80
2022/01/16 00:41:37;;;;;;;67.23;21.60;;;;;;;;;;5106265;28;20330;-79
2022/01/16 00:44:05;;;;;;;81.70;21.30;;;;;;;;;;5093020;28;20288;-80
2022/01/16 00:46:32;;;;;;;79.83;22.10;;;;;;;;;;5093629;28;20682;-80
2022/01/16 00:49:00;;;;;;;68.70;22.00;;;;;;;;;;5093365;28;20305;-81
2022/01/16 00:51:27;;;;;;;51.27;19.60;;;;;;;;;;5093622;28;20244;-80
2022/01/16 00:53:54;;;;;;;54.60;18.37;;;;;;;;;;5103411;28;20225;-81
2022/01/16 00:56:23;;;;;;;54.93;18.20;;;;;;;;;;5094024;28;20229;-80
2022/01/16 00:58:50;;;;;;;68.23;18.40;;;;;;;;;;5094114;28;20228;-80
2022/01/16 01:01:18;;;;;;;63.70;17.87;;;;;;;;;;5104424;28;20285;-80
2022/01/16 01:03:45;;;;;;;72.67;17.93;;;;;;;;;;5096853;28;20232;-80
2022/01/16 01:06:12;;;;;;;59.73;18.47;;;;;;;;;;5093198;28;20240;-80
2022/01/16 01:08:40;;;;;;;57.57;17.10;;;;;;;;;;5093086;28;20237;-80
2022/01/16 01:11:12;;;;;;;64.23;18.40;;;;;;;;;;5089589;28;20208;-80
2022/01/16 01:13:56;;;;;;;58.63;17.87;;;;;;;;;;5092905;28;20205;-80
2022/01/16 01:16:23;;;;;;;44.57;17.30;;;;;;;;;;5092256;28;20551;-80
2022/01/16 01:18:51;;;;;;;76.17;18.30;;;;;;;;;;5092709;28;20209;-80
2022/01/16 01:21:28;;;;;;;58.23;18.70;;;;;;;;;;5099477;28;20321;-80
2022/01/16 01:23:57;;;;;;;52.10;17.77;;;;;;;;;;5092508;28;20229;-80
2022/01/16 01:26:29;;;;;;;48.67;17.40;;;;;;;;;;5091723;28;20252;-80
2022/01/16 01:28:58;;;;;;;43.93;17.47;;;;;;;;;;5093139;28;20197;-80
2022/01/16 01:31:27;;;;;;;61.57;19.03;;;;;;;;;;5093412;28;20297;-80
2022/01/16 01:33:54;;;;;;;72.60;19.23;;;;;;;;;;5092640;28;20197;-80
2022/01/16 01:36:22;;;;;;;55.47;18.23;;;;;;;;;;5100120;28;20226;-81
2022/01/16 01:38:49;;;;;;;42.93;17.73;;;;;;;;;;5096722;28;20281;-80
2022/01/16 01:41:16;;;;;;;42.63;18.00;;;;;;;;;;5092382;28;20693;-80
2022/01/16 01:52:01;;;;;;;58.93;19.27;;;;;;;;;;5029951;28;20204;-80
2022/01/16 01:54:30;;;;;;;45.23;19.07;;;;;;;;;;5029304;28;20204;-80
2022/01/16 01:56:58;;;;;;;52.63;20.03;;;;;;;;;;5029298;28;20263;-80
2022/01/16 01:59:25;;;;;;;44.67;18.53;;;;;;;;;;5030046;28;20712;-80
2022/01/16 02:01:54;;;;;;;47.23;19.70;;;;;;;;;;5029871;28;20283;-80
2022/01/16 02:04:21;;;;;;;61.53;20.47;;;;;;;;;;5030161;28;20300;-80
2022/01/16 02:06:49;;;;;;;62.43;20.83;;;;;;;;;;5029057;28;20283;-80
2022/01/16 02:09:17;;;;;;;66.73;22.00;;;;;;;;;;5029073;28;20207;-80
2022/01/16 02:11:44;;;;;;;61.47;21.67;;;;;;;;;;5028995;28;20370;-80
2022/01/16 02:14:22;;;;;;;55.93;20.37;;;;;;;;;;5029574;28;20283;-80
2022/01/16 02:28:07;;;;;;;52.70;20.53;;;;;;;;;;5084815;28;20274;-80
2022/01/16 02:34:30;;;;;;;49.33;20.53;;;;;;;;;;5028320;28;20192;-80
2022/01/16 02:36:24;;;;;;;48.10;18.43;;;;;;;;;;5028971;28;20218;-81
2022/01/16 02:38:53;;;;;;;44.30;18.63;;;;;;;;;;5028988;28;20208;-80
2022/01/16 02:41:23;;;;;;;59.13;19.57;;;;;;;;;;5028868;28;20291;-81
2022/01/16 02:43:51;;;;;;;47.30;19.77;;;;;;;;;;5034346;28;20587;-80
2022/01/16 02:46:37;;;;;;;44.37;18.73;;;;;;;;;;5029625;28;20197;-80
2022/01/16 02:49:04;;;;;;;49.17;18.77;;;;;;;;;;5031858;28;20226;-79
2022/01/16 02:51:32;;;;;;;62.73;20.07;;;;;;;;;;5030208;28;20203;-79
2022/01/16 02:54:01;;;;;;;64.27;20.77;;;;;;;;;;5047486;28;20972;-79
2022/01/16 02:56:28;;;;;;;71.20;21.33;;;;;;;;;;5028608;28;20257;-80
2022/01/16 02:58:55;;;;;;;58.70;20.20;;;;;;;;;;5029224;28;20235;-81
2022/01/16 03:01:23;;;;;;;75.30;21.03;;;;;;;;;;5028813;28;20239;-81
2022/01/16 03:03:50;;;;;;;65.73;19.93;;;;;;;;;;5028311;28;20311;-81
2022/01/16 03:06:17;;;;;;;84.87;21.00;;;;;;;;;;5031256;28;20277;-80
2022/01/16 03:08:44;;;;;;;66.67;22.23;;;;;;;;;;5027985;28;20250;-80
2022/01/16 03:11:28;;;;;;;62.27;20.87;;;;;;;;;;5079628;28;20284;-80
2022/01/16 03:13:55;;;;;;;83.97;22.67;;;;;;;;;;5090968;28;20212;-80
2022/01/16 03:16:23;;;;;;;88.03;23.63;;;;;;;;;;5090857;28;20262;-80
2022/01/16 03:21:55;;;;;;;73.60;21.10;;;;;;;;;;5090821;28;20799;-80
2022/01/16 03:24:24;;;;;;;79.70;22.53;;;;;;;;;;5087140;28;20231;-80
2022/01/16 03:26:53;;;;;;;75.00;21.37;;;;;;;;;;5092541;28;20271;-81
2022/01/16 03:29:20;;;;;;;77.67;22.03;;;;;;;;;;5090439;28;20643;-80
2022/01/16 03:31:47;;;;;;;80.63;20.37;;;;;;;;;;5098917;28;20229;-80
2022/01/16 03:34:15;;;;;;;73.70;20.97;;;;;;;;;;5092395;28;20619;-80
2022/01/16 03:36:42;;;;;;;67.60;19.80;;;;;;;;;;5090699;28;20280;-80
2022/01/16 03:39:09;;;;;;;73.37;20.53;;;;;;;;;;5090573;28;20225;-80
2022/01/16 03:41:37;;;;;;;67.07;20.13;;;;;;;;;;5090761;28;20230;-80
2022/01/16 03:44:06;;;;;;;70.50;19.40;;;;;;;;;;5090129;28;20265;-81
2022/01/16 03:46:35;;;;;;;102.53;20.57;;;;;;;;;;5090323;28;20306;-81
2022/01/16 03:49:07;;;;;;;75.27;20.73;;;;;;;;;;5093664;28;20198;-80
2022/01/16 03:51:34;;;;;;;73.20;19.43;;;;;;;;;;5090660;28;20746;-80
2022/01/16 03:54:02;;;;;;;72.90;19.57;;;;;;;;;;5090773;28;20281;-80
2022/01/16 03:56:29;;;;;;;74.80;18.57;;;;;;;;;;5089600;28;20329;-81
2022/01/16 03:58:56;;;;;;;72.63;18.43;;;;;;;;;;5106465;28;20289;-80
2022/01/16 04:01:25;;;;;;;82.80;18.73;;;;;;;;;;5110374;28;20741;-81
2022/01/16 04:03:53;;;;;;;81.87;17.47;;;;;;;;;;5096144;28;20222;-80
2022/01/16 04:06:21;;;;;;;87.90;17.33;;;;;;;;;;5090493;28;20309;-81
2022/01/16 04:08:48;;;;;;;67.43;16.07;;;;;;;;;;5090251;28;20703;-80
2022/01/16 04:11:15;;;;;;;82.53;16.13;;;;;;;;;;5109349;28;20289;-81
2022/01/16 04:13:49;;;;;;;102.23;16.53;;;;;;;;;;5094010;28;20250;-80
2022/01/16 04:16:17;;;;;;;46.93;15.87;;;;;;;;;;5094175;28;20198;-80
2022/01/16 04:18:49;;;;;;;44.47;15.60;;;;;;;;;;5094113;28;20289;-81
2022/01/16 04:21:16;;;;;;;47.80;13.70;;;;;;;;;;5094103;28;20252;-81
2022/01/16 04:23:43;;;;;;;69.90;13.73;;;;;;;;;;5093165;28;20303;-80
2022/01/16 04:26:10;;;;;;;77.13;15.33;;;;;;;;;;5094009;28;20231;-80
2022/01/16 04:28:38;;;;;;;79.40;15.37;;;;;;;;;;5094173;28;20298;-80
2022/01/16 04:31:05;;;;;;;70.83;16.57;;;;;;;;;;5093094;28;20674;-81
2022/01/16 04:33:32;;;;;;;68.80;16.33;;;;;;;;;;5096803;28;20285;-80
2022/01/16 04:36:01;;;;;;;82.47;16.83;;;;;;;;;;5094771;28;20234;-80
2022/01/16 04:38:28;;;;;;;62.43;16.33;;;;;;;;;;5094024;28;20290;-81
2022/01/16 04:43:51;;;;;;;50.83;14.67;;;;;;;;;;5104001;28;20715;-81
2022/01/16 04:46:19;;;;;;;45.20;13.03;;;;;;;;;;5114655;28;20205;-80
2022/01/16 04:48:47;;;;;;;62.07;13.03;;;;;;;;;;5111816;28;20286;-80
2022/01/16 04:51:16;;;;;;;50.17;13.60;;;;;;;;;;5094111;28;20292;-80
2022/01/16 04:53:43;;;;;;;74.37;14.27;;;;;;;;;;5093596;28;20670;-81
2022/01/16 04:56:11;;;;;;;82.57;13.87;;;;;;;;;;5092897;28;20221;-81
2022/01/16 04:58:39;;;;;;;50.17;13.90;;;;;;;;;;5094075;28;20202;-80
2022/01/16 05:01:06;;;;;;;59.43;13.63;;;;;;;;;;5093246;28;20201;-80
2022/01/16 05:03:34;;;;;;;73.67;14.30;;;;;;;;;;5098923;28;20422;-80
2022/01/16 05:06:02;;;;;;;61.57;14.43;;;;;;;;;;5105640;28;20273;-81
2022/01/16 05:08:31;;;;;;;59.40;13.23;;;;;;;;;;5093513;28;20240;-80
2022/01/16 05:10:59;;;;;;;53.47;13.67;;;;;;;;;;5093761;28;20241;-81
2022/01/16 05:13:31;;;;;;;39.57;12.67;;;;;;;;;;5092213;28;20198;-81
2022/01/16 05:18:44;;;;;;;62.27;11.97;;;;;;;;;;5091843;28;20324;-81
2022/01/16 05:21:11;;;;;;;40.03;11.33;;;;;;;;;;5092074;28;20195;-81
2022/01/16 05:23:41;;;;;;;42.57;11.63;;;;;;;;;;5102439;28;20221;-80
2022/01/16 05:26:08;;;;;;;50.50;11.97;;;;;;;;;;5092211;28;20237;-81
2022/01/16 05:28:35;;;;;;;40.53;11.83;;;;;;;;;;5092605;28;20273;-80
2022/01/16 05:31:03;;;;;;;43.13;11.90;;;;;;;;;;5092763;28;20237;-81
2022/01/16 05:33:30;;;;;;;38.47;9.97;;;;;;;;;;5092953;28;20230;-81
2022/01/16 05:35:58;;;;;;;41.77;10.30;;;;;;;;;;5092478;28;20277;-81
2022/01/16 05:38:25;;;;;;;39.97;11.10;;;;;;;;;;5098209;28;20234;-81
2022/01/16 05:40:54;;;;;;;37.67;10.30;;;;;;;;;;5092660;28;20297;-81
2022/01/16 05:43:21;;;;;;;50.83;10.73;;;;;;;;;;5092801;28;20322;-80
2022/01/16 05:45:48;;;;;;;53.33;11.70;;;;;;;;;;5092404;28;20321;-79
2022/01/16 05:48:16;;;;;;;40.63;11.33;;;;;;;;;;5092109;28;20300;-79
2022/01/16 05:50:43;;;;;;;37.63;12.57;;;;;;;;;;5091688;28;20280;-79
2022/01/16 05:53:11;;;;;;;29.40;11.53;;;;;;;;;;5091682;28;20309;-80
2022/01/16 05:55:38;;;;;;;35.50;11.07;;;;;;;;;;5105610;28;20217;-80
2022/01/16 05:58:07;;;;;;;32.87;10.80;;;;;;;;;;5101016;28;20226;-80
2022/01/16 06:00:36;;;;;;;39.73;10.23;;;;;;;;;;5091929;28;20692;-79
2022/01/16 06:03:03;;;;;;;45.47;10.20;;;;;;;;;;5092318;28;20210;-79
2022/01/16 06:05:30;;;;;;;35.73;10.13;;;;;;;;;;5092555;28;20728;-80
2022/01/16 06:08:00;;;;;;;45.67;9.90;;;;;;;;;;5091901;28;20228;-80
2022/01/16 06:10:27;;;;;;;33.07;10.20;;;;;;;;;;5091973;28;20204;-80
2022/01/16 06:12:55;;;;;;;44.17;10.97;;;;;;;;;;5091754;28;20696;-80
2022/01/16 06:15:24;;;;;;;40.57;11.53;;;;;;;;;;5091457;28;20308;-80
2022/01/16 06:17:51;;;;;;;46.60;12.67;;;;;;;;;;5089637;28;20741;-80
2022/01/16 06:20:19;;;;;;;38.90;11.57;;;;;;;;;;5092105;28;20292;-80
2022/01/16 06:22:46;;;;;;;37.37;10.97;;;;;;;;;;5091804;28;20193;-80
2022/01/16 06:25:14;;;;;;;54.30;12.10;;;;;;;;;;5091579;28;20304;-79
2022/01/16 06:27:41;;;;;;;43.37;12.03;;;;;;;;;;5091399;28;20693;-80
2022/01/16 06:30:10;;;;;;;45.20;12.67;;;;;;;;;;5103692;28;20645;-81
2022/01/16 06:32:39;;;;;;;57.83;13.00;;;;;;;;;;5104860;28;20284;-80
2022/01/16 06:35:07;;;;;;;43.27;12.37;;;;;;;;;;5091029;28;20239;-80
2022/01/16 06:37:34;;;;;;;51.80;12.87;;;;;;;;;;5091078;28;20294;-80
2022/01/16 06:40:02;;;;;;;44.60;12.77;;;;;;;;;;5097090;28;20312;-80
2022/01/16 06:42:29;;;;;;;43.73;11.87;;;;;;;;;;5100330;28;20672;-80
2022/01/16 06:44:56;;;;;;;46.57;12.57;;;;;;;;;;5090902;28;20657;-80
2022/01/16 06:47:24;;;;;;;42.97;12.60;;;;;;;;;;5091107;28;20270;-80
2022/01/16 06:49:52;;;;;;;41.27;11.63;;;;;;;;;;5092028;28;20237;-80
2022/01/16 06:52:19;;;;;;;36.23;12.67;;;;;;;;;;5091785;28;20233;-81
2022/01/16 06:54:47;;;;;;;59.63;13.50;;;;;;;;;;5091030;28;20240;-81
2022/01/16 06:57:14;;;;;;;64.47;12.83;;;;;;;;;;5091319;28;20776;-80
2022/01/16 06:59:42;;;;;;;64.87;13.73;;;;;;;;;;5105754;28;20599;-80
2022/01/16 07:02:09;;;;;;;53.87;13.27;;;;;;;;;;5106141;28;20197;-81
2022/01/16 07:04:37;;;;;;;60.07;14.20;;;;;;;;;;5091311;28;20323;-81
2022/01/16 07:07:06;;;;;;;60.93;13.80;;;;;;;;;;5091156;28;20229;-81
2022/01/16 07:09:33;;;;;;;49.07;13.43;;;;;;;;;;5091949;28;20288;-81
2022/01/16 07:12:00;;;;;;;49.50;12.90;;;;;;;;;;5105258;28;20225;-81
2022/01/16 07:14:27;;;;;;;41.40;12.00;;;;;;;;;;5104873;28;20305;-81
2022/01/16 07:16:54;;;;;;;57.57;13.33;;;;;;;;;;5098227;28;20239;-80
2022/01/16 07:19:21;;;;;;;46.30;14.30;;;;;;;;;;5091667;28;20623;-80
2022/01/16 07:21:49;;;;;;;56.53;15.07;;;;;;;;;;5090661;28;20384;-81
2022/01/16 07:24:17;;;;;;;54.40;13.10;;;;;;;;;;5090847;28;20256;-81
2022/01/16 07:26:44;;;;;;;47.30;13.17;;;;;;;;;;5093971;28;20273;-81
2022/01/16 07:29:12;;;;;;;49.20;13.67;;;;;;;;;;5090828;28;20293;-80
2022/01/16 07:31:39;;;;;;;38.97;12.23;;;;;;;;;;5091529;28;20198;-81
2022/01/16 07:34:06;;;;;;;54.13;11.87;;;;;;;;;;5090126;28;20197;-80
2022/01/16 07:36:34;;;;;;;36.70;11.03;;;;;;;;;;5091275;28;20824;-80
2022/01/16 07:39:01;;;;;;;43.00;11.10;;;;;;;;;;5090560;28;20238;-81
2022/01/16 07:41:29;;;;;;;40.90;11.50;;;;;;;;;;5098514;28;20252;-80
2022/01/16 07:43:57;;;;;;;50.13;11.07;;;;;;;;;;5089749;28;20269;-80
2022/01/16 07:46:25;;;;;;;40.57;11.27;;;;;;;;;;5091887;28;20202;-80
2022/01/16 07:48:52;;;;;;;44.53;11.27;;;;;;;;;;5094921;28;20290;-80
2022/01/16 07:51:19;;;;;;;35.60;11.77;;;;;;;;;;5093854;28;20292;-80
2022/01/16 07:53:46;;;;;;;45.70;10.97;;;;;;;;;;5094766;28;20635;-80
2022/01/16 07:56:15;;;;;;;44.97;9.97;;;;;;;;;;5094708;28;20235;-80
2022/01/16 07:58:43;;;;;;;57.03;12.03;;;;;;;;;;5085555;28;20237;-81
2022/01/16 08:01:10;;;;;;;40.40;11.57;;;;;;;;;;5094588;28;20229;-81
2022/01/16 08:03:38;;;;;;;39.47;10.87;;;;;;;;;;5094861;28;20284;-81
2022/01/16 08:06:05;;;;;;;39.13;11.37;;;;;;;;;;5094711;28;20296;-81
2022/01/16 08:08:32;;;;;;;49.57;11.53;;;;;;;;;;5094353;28;20297;-81
2022/01/16 08:10:59;;;;;;;51.73;12.63;;;;;;;;;;5094574;28;20634;-81
2022/01/16 08:13:26;;;;;;;50.07;12.43;;;;;;;;;;5094490;28;20237;-80
2022/01/16 08:15:55;;;;;;;45.37;12.40;;;;;;;;;;5094777;28;20281;-82
2022/01/16 08:18:22;;;;;;;40.87;12.70;;;;;;;;;;5094474;28;20286;-81
2022/01/16 08:20:49;;;;;;;48.57;13.50;;;;;;;;;;5094675;28;20297;-82
2022/01/16 08:23:16;;;;;;;46.50;12.10;;;;;;;;;;5099920;28;20285;-82
2022/01/16 08:25:44;;;;;;;50.33;12.70;;;;;;;;;;5094005;28;20313;-82
2022/01/16 08:28:11;;;;;;;42.20;12.20;;;;;;;;;;5094124;28;20220;-82
2022/01/16 08:30:38;;;;;;;65.50;13.00;;;;;;;;;;5094213;28;20233;-82
2022/01/16 08:33:06;;;;;;;57.33;13.07;;;;;;;;;;5093723;28;20289;-82
2022/01/16 08:35:34;;;;;;;68.23;16.93;;;;;;;;;;5094541;28;20285;-82
2022/01/16 08:38:01;;;;;;;71.60;16.40;;;;;;;;;;5093763;28;20273;-82
2022/01/16 08:40:28;;;;;;;55.10;14.27;;;;;;;;;;5078423;28;20230;-81
2022/01/16 08:42:56;;;;;;;58.17;15.27;;;;;;;;;;5109201;28;20748;-81
2022/01/16 08:45:23;;;;;;;53.97;14.37;;;;;;;;;;5094718;28;20322;-81
2022/01/16 08:47:50;;;;;;;57.73;15.20;;;;;;;;;;5093731;28;20729;-82
2022/01/16 08:50:18;;;;;;;67.37;15.30;;;;;;;;;;5093839;28;20290;-82
2022/01/16 08:52:46;;;;;;;72.57;15.90;;;;;;;;;;5094172;28;20230;-82
2022/01/16 08:55:14;;;;;;;62.00;15.13;;;;;;;;;;5093672;28;20190;-82
2022/01/16 08:57:41;;;;;;;80.60;15.90;;;;;;;;;;5093449;28;20242;-82
2022/01/16 09:00:09;;;;;;;72.10;16.70;;;;;;;;;;5088152;28;20202;-82
2022/01/16 09:02:36;;;;;;;59.97;15.70;;;;;;;;;;5093072;28;20281;-82
2022/01/16 09:05:04;;;;;;;64.03;16.27;;;;;;;;;;5095367;28;20720;-83
2022/01/16 09:07:33;;;;;;;66.07;14.93;;;;;;;;;;5083132;28;20289;-83
2022/01/16 09:10:01;;;;;;;59.80;14.53;;;;;;;;;;5092805;28;20225;-83
2022/01/16 09:12:29;;;;;;;79.30;16.33;;;;;;;;;;5093511;28;20198;-83
2022/01/16 09:14:57;;;;;;;72.00;17.23;;;;;;;;;;5093746;28;20198;-84
2022/01/16 09:17:24;;;;;;;70.90;15.97;;;;;;;;;;5093719;28;20292;-84
2022/01/16 09:19:51;;;;;;;71.93;15.67;;;;;;;;;;5093547;28;20244;-84
2022/01/16 09:22:19;;;;;;;57.33;14.47;;;;;;;;;;5093513;28;20237;-84
2022/01/16 09:24:47;;;;;;;59.80;14.47;;;;;;;;;;5093257;28;20297;-84
2022/01/16 09:27:14;;;;;;;77.37;15.93;;;;;;;;;;5096240;28;20281;-84
2022/01/16 09:29:42;;;;;;;73.73;15.50;;;;;;;;;;5093728;28;20297;-84
2022/01/16 09:32:11;;;;;;;79.87;15.33;;;;;;;;;;5093521;28;20278;-84
2022/01/16 09:34:38;;;;;;;98.57;16.30;;;;;;;;;;5111322;28;20201;-84
2022/01/16 09:37:08;;;;;;;71.37;15.30;;;;;;;;;;5107917;28;20301;-83
2022/01/16 09:39:36;;;;;;;73.30;15.57;;;;;;;;;;5093257;28;20198;-84
2022/01/16 09:42:06;;;;;;;76.07;15.43;;;;;;;;;;5093497;28;20291;-84
2022/01/16 09:44:35;;;;;;;56.37;14.60;;;;;;;;;;5093008;28;20245;-84
2022/01/16 09:47:02;;;;;;;60.57;14.30;;;;;;;;;;5093159;28;20697;-84
2022/01/16 09:49:29;;;;;;;68.97;15.57;;;;;;;;;;5093082;28;20251;-81
2022/01/16 09:51:56;;;;;;;59.90;15.73;;;;;;;;;;5091127;28;20301;-82
2022/01/16 09:54:24;;;;;;;75.43;16.37;;;;;;;;;;5090438;28;20221;-81
2022/01/16 09:56:52;;;;;;;71.33;15.40;;;;;;;;;;5090780;28;20249;-81
2022/01/16 09:59:20;;;;;;;56.47;15.20;;;;;;;;;;5093367;28;20250;-82
2022/01/16 10:01:49;;;;;;;60.17;15.37;;;;;;;;;;5106314;28;20294;-81
2022/01/16 10:04:31;;;;;;;55.13;16.53;;;;;;;;;;5093118;28;20199;-82
2022/01/16 10:06:58;;;;;;;65.80;16.37;;;;;;;;;;5092423;28;20238;-82
2022/01/16 10:09:25;;;;;;;61.70;15.23;;;;;;;;;;5091705;28;20282;-81
2022/01/16 10:11:57;;;;;;;65.53;15.63;;;;;;;;;;5092450;28;20282;-82
2022/01/16 10:14:34;;;;;;;58.63;16.10;;;;;;;;;;5092266;28;20283;-82
2022/01/16 10:17:10;;;;;;;45.70;14.60;;;;;;;;;;5087519;28;20288;-82
2022/01/16 10:19:37;;;;;;;50.53;14.47;;;;;;;;;;5071740;28;20211;-82
2022/01/16 10:22:05;;;;;;;61.50;15.50;;;;;;;;;;5095819;28;20262;-82
2022/01/16 10:24:34;;;;;;;47.50;13.53;;;;;;;;;;5097872;28;20240;-82
2022/01/16 10:27:17;;;;;;;55.13;15.03;;;;;;;;;;5096745;27;20611;-82
2022/01/16 10:29:47;;;;;;;40.17;12.93;;;;;;;;;;5108533;28;20198;-83
2022/01/16 10:32:15;;;;;;;44.47;15.33;;;;;;;;;;5114578;28;20649;-82
2022/01/16 10:34:43;;;;;;;38.73;12.20;;;;;;;;;;5095501;28;20670;-82
2022/01/16 10:37:21;;;;;;;37.23;13.47;;;;;;;;;;5090510;28;20811;-81
2022/01/16 10:39:58;;;;;;;34.80;13.93;;;;;;;;;;5092775;28;20220;-82
2022/01/16 10:42:26;;;;;;;43.57;13.97;;;;;;;;;;5092939;28;20224;-83
2022/01/16 10:44:58;;;;;;;35.83;12.83;;;;;;;;;;5093152;28;20319;-82
2022/01/16 10:47:30;;;;;;;37.47;12.97;;;;;;;;;;5093527;28;20281;-83
2022/01/16 10:50:15;;;;;;;31.20;13.57;;;;;;;;;;5092845;28;20356;-83
2022/01/16 10:52:53;;;;;;;33.33;13.53;;;;;;;;;;5092383;28;20194;-83
2022/01/16 10:55:21;;;;;;;38.13;13.37;;;;;;;;;;5092829;28;20248;-83
2022/01/16 10:57:49;;;;;;;32.67;13.17;;;;;;;;;;5093735;28;20670;-83
2022/01/16 11:00:20;;;;;;;35.53;13.63;;;;;;;;;;5091175;28;20751;-83
2022/01/16 11:02:49;;;;;;;31.73;14.03;;;;;;;;;;5093985;28;20191;-82
2022/01/16 11:05:18;;;;;;;33.07;14.17;;;;;;;;;;5092930;28;20311;-82
2022/01/16 11:07:45;;;;;;;24.10;11.87;;;;;;;;;;5093241;28;20198;-82
2022/01/16 11:10:29;;;;;;;32.87;12.87;;;;;;;;;;5093066;28;21659;-81
2022/01/16 11:12:57;;;;;;;34.43;14.40;;;;;;;;;;5094504;28;20282;-85
2022/01/16 11:15:27;;;;;;;28.53;13.70;;;;;;;;;;5094469;28;20238;-85
2022/01/16 11:17:54;;;;;;;36.83;14.00;;;;;;;;;;5106854;28;20243;-84
2022/01/16 11:20:28;;;;;;;27.57;12.57;;;;;;;;;;5073196;28;20233;-85
2022/01/16 11:23:02;;;;;;;25.60;13.60;;;;;;;;;;5077782;28;20291;-84
2022/01/16 11:25:33;;;;;;;22.83;11.40;;;;;;;;;;5078064;28;20230;-86
2022/01/16 11:28:05;;;;;;;19.53;11.37;;;;;;;;;;5087340;28;20200;-85
2022/01/16 11:30:35;;;;;;;20.90;10.17;;;;;;;;;;5078370;28;20849;-86
2022/01/16 11:33:03;;;;;;;17.30;9.73;;;;;;;;;;5088707;28;20197;-86
2022/01/16 11:35:31;;;;;;;16.50;9.63;;;;;;;;;;5097859;28;20237;-86
2022/01/16 11:37:59;;;;;;;17.83;9.80;;;;;;;;;;5097881;28;20285;-83
2022/01/16 11:40:29;;;;;;;20.87;10.33;;;;;;;;;;5097473;28;20220;-85
2022/01/16 11:43:12;;;;;;;24.97;11.03;;;;;;;;;;5097597;28;20208;-84
2022/01/16 11:45:47;;;;;;;25.83;12.97;;;;;;;;;;5097478;28;20269;-85
2022/01/16 11:48:14;;;;;;;25.27;13.40;;;;;;;;;;5090245;28;20206;-85
2022/01/16 11:50:41;;;;;;;24.27;12.67;;;;;;;;;;5076769;28;20266;-86
2022/01/16 11:53:08;;;;;;;28.33;14.37;;;;;;;;;;5080564;28;20636;-84
2022/01/16 11:55:36;;;;;;;24.90;13.03;;;;;;;;;;5094185;28;20261;-84
2022/01/16 11:58:04;;;;;;;27.80;12.90;;;;;;;;;;5095489;28;20227;-83
2022/01/16 12:00:44;;;;;;;31.43;14.70;;;;;;;;;;5100180;28;20250;-84
2022/01/16 12:03:35;;;;;;;26.60;13.37;;;;;;;;;;5108078;28;20289;-84
2022/01/16 12:06:17;;;;;;;29.50;15.23;;;;;;;;;;5096179;28;20307;-84
2022/01/16 12:08:46;;;;;;;31.70;15.43;;;;;;;;;;5096519;28;20284;-84
2022/01/16 12:11:36;;;;;;;37.83;15.57;;;;;;;;;;5096184;28;20195;-85
2022/01/16 12:14:03;;;;;;;33.10;14.77;;;;;;;;;;5111252;28;20208;-85
2022/01/16 12:16:42;;;;;;;33.07;15.93;;;;;;;;;;5117925;28;20224;-86
2022/01/16 12:19:28;;;;;;;28.30;13.67;;;;;;;;;;5100021;28;20202;-86
2022/01/16 12:21:57;;;;;;;34.20;14.90;;;;;;;;;;5095986;28;20285;-85
2022/01/16 12:24:34;;;;;;;30.30;15.37;;;;;;;;;;5097229;28;20293;-85
2022/01/16 12:27:20;;;;;;;36.43;17.03;;;;;;;;;;5096034;28;20305;-86
2022/01/16 12:30:05;;;;;;;28.90;14.17;;;;;;;;;;5096779;28;20192;-86
2022/01/16 12:32:55;;;;;;;32.13;15.43;;;;;;;;;;5098948;28;20206;-86
2022/01/16 12:35:40;;;;;;;31.17;15.00;;;;;;;;;;5099244;28;20226;-86
2022/01/16 12:38:09;;;;;;;25.17;13.67;;;;;;;;;;5095531;28;20264;-86
2022/01/16 12:40:38;;;;;;;27.80;14.23;;;;;;;;;;5096814;28;20206;-85
2022/01/16 12:43:08;;;;;;;26.93;14.57;;;;;;;;;;5096285;28;20236;-86
2022/01/16 12:45:37;;;;;;;27.63;13.53;;;;;;;;;;5096376;28;20812;-86
2022/01/16 12:48:04;;;;;;;27.30;13.70;;;;;;;;;;5095492;28;20674;-86
2022/01/16 12:50:32;;;;;;;27.00;15.20;;;;;;;;;;5096679;28;20229;-86
2022/01/16 12:52:59;;;;;;;28.73;15.47;;;;;;;;;;5096145;28;20636;-84
2022/01/16 12:55:28;;;;;;;27.77;14.43;;;;;;;;;;5094896;28;20301;-83
2022/01/16 12:57:55;;;;;;;27.67;15.60;;;;;;;;;;5096033;28;20248;-83
2022/01/16 13:00:23;;;;;;;27.77;15.43;;;;;;;;;;5095149;28;20285;-84
2022/01/16 13:02:53;;;;;;;26.47;14.63;;;;;;;;;;5095071;28;20286;-85
2022/01/16 13:05:21;;;;;;;26.50;14.20;;;;;;;;;;5095173;28;20205;-85
2022/01/16 13:07:48;;;;;;;27.80;15.07;;;;;;;;;;5096247;28;20226;-87
2022/01/16 13:10:15;;;;;;;31.17;15.77;;;;;;;;;;5093905;28;20303;-85
2022/01/16 13:12:45;;;;;;;30.60;17.13;;;;;;;;;;5092057;28;20584;-85
2022/01/16 13:15:14;;;;;;;27.80;15.20;;;;;;;;;;5092276;28;20580;-84
2022/01/16 13:17:41;;;;;;;32.50;17.27;;;;;;;;;;5091305;28;20237;-83
2022/01/16 13:20:14;;;;;;;30.30;17.57;;;;;;;;;;5092956;28;20222;-84
2022/01/16 13:22:42;;;;;;;32.70;18.13;;;;;;;;;;5093653;28;20218;-84
2022/01/16 13:25:10;;;;;;;35.63;18.63;;;;;;;;;;5093553;28;20233;-83
2022/01/16 13:27:39;;;;;;;33.00;18.60;;;;;;;;;;5092757;28;20297;-84
2022/01/16 13:30:10;;;;;;;37.23;19.10;;;;;;;;;;5091642;28;20333;-84
2022/01/16 13:32:38;;;;;;;35.63;18.70;;;;;;;;;;5092349;28;20206;-84
2022/01/16 13:35:07;;;;;;;34.07;17.83;;;;;;;;;;5099193;28;20252;-84
2022/01/16 13:37:36;;;;;;;35.67;18.30;;;;;;;;;;5093272;28;20259;-84
2022/01/16 13:40:05;;;;;;;30.97;17.00;;;;;;;;;;5093045;28;20225;-85
2022/01/16 13:42:42;;;;;;;34.97;17.97;;;;;;;;;;5092711;28;20222;-84
2022/01/16 13:45:21;;;;;;;34.17;18.23;;;;;;;;;;5087824;28;20284;-83
2022/01/16 13:47:56;;;;;;;34.30;18.47;;;;;;;;;;5092149;28;20273;-84
2022/01/16 13:50:24;;;;;;;37.00;18.40;;;;;;;;;;5092603;28;20292;-84
2022/01/16 13:52:52;;;;;;;33.60;17.73;;;;;;;;;;5091618;28;20252;-84
2022/01/16 13:55:19;;;;;;;38.47;18.37;;;;;;;;;;5092738;28;20194;-84
2022/01/16 13:57:47;;;;;;;32.90;17.90;;;;;;;;;;5092624;28;20803;-84
2022/01/16 14:00:14;;;;;;;38.13;19.60;;;;;;;;;;5092140;28;20234;-84
2022/01/16 14:02:43;;;;;;;35.87;19.23;;;;;;;;;;5091983;28;20685;-84
2022/01/16 14:05:11;;;;;;;41.57;18.90;;;;;;;;;;5092507;28;20222;-84
2022/01/16 14:07:38;;;;;;;38.83;19.20;;;;;;;;;;5100535;28;20296;-84
2022/01/16 14:10:05;;;;;;;38.57;19.07;;;;;;;;;;5087646;28;20289;-84
2022/01/16 14:12:32;;;;;;;39.97;20.60;;;;;;;;;;5091980;28;20286;-84
2022/01/16 14:15:00;;;;;;;42.90;20.13;;;;;;;;;;5091594;28;20230;-84
2022/01/16 14:20:46;;;;;;;43.73;21.30;;;;;;;;;;5090966;28;20259;-84
2022/01/16 14:23:14;;;;;;;42.47;20.30;;;;;;;;;;5090912;28;20676;-85
2022/01/16 14:25:41;;;;;;;40.37;21.77;;;;;;;;;;5091618;28;20233;-84
2022/01/16 14:28:08;;;;;;;40.23;20.83;;;;;;;;;;5090779;28;20231;-84
2022/01/16 14:30:35;;;;;;;41.60;20.17;;;;;;;;;;5093594;28;20597;-84
2022/01/16 14:33:03;;;;;;;40.27;19.50;;;;;;;;;;5089327;28;20295;-84
2022/01/16 14:35:32;;;;;;;38.57;19.87;;;;;;;;;;5094926;28;20557;-83
2022/01/16 14:37:59;;;;;;;41.27;19.80;;;;;;;;;;5110036;28;20745;-83
2022/01/16 14:40:27;;;;;;;39.47;20.07;;;;;;;;;;5087339;28;20277;-83
2022/01/16 14:43:03;;;;;;;39.00;19.03;;;;;;;;;;5090647;28;20207;-83
2022/01/16 14:45:30;;;;;;;37.27;19.03;;;;;;;;;;5089387;28;20241;-83
2022/01/16 14:47:57;;;;;;;39.93;18.43;;;;;;;;;;5089621;28;20305;-83
2022/01/16 14:50:25;;;;;;;37.30;18.63;;;;;;;;;;5089189;28;20289;-84
2022/01/16 14:52:53;;;;;;;36.97;19.17;;;;;;;;;;5088775;28;20300;-84
2022/01/16 14:55:20;;;;;;;39.40;19.57;;;;;;;;;;5089839;28;20241;-84
2022/01/16 14:57:48;;;;;;;38.53;18.90;;;;;;;;;;5087987;28;20226;-85
2022/01/16 15:00:16;;;;;;;42.70;19.23;;;;;;;;;;5090837;28;20720;-84
2022/01/16 15:02:43;;;;;;;39.47;19.17;;;;;;;;;;5091220;28;20290;-84
2022/01/16 15:05:11;;;;;;;44.30;19.90;;;;;;;;;;5090219;28;20234;-84